createdAt,value
2018-06-29T00:00:07.100Z,19.1666666667
2018-06-29T00:00:19.596Z,19.1666666667
2018-06-29T00:00:32.089Z,19.1666666667
2018-06-29T00:00:44.551Z,19.1666666667
2018-06-29T00:00:57.246Z,19.1666666667
2018-06-29T00:01:09.897Z,19.1666666667
2018-06-29T00:01:22.579Z,19.1666666667
2018-06-29T00:01:35.167Z,19.1666666667
2018-06-29T00:01:47.806Z,19.1666666667
2018-06-29T00:02:00.213Z,19.1666666667
2018-06-29T00:02:12.625Z,19.1666666667
2018-06-29T00:02:25.234Z,19.1666666667
2018-06-29T00:02:37.761Z,19.1111111111
2018-06-29T00:02:50.162Z,19.1666666667
2018-06-29T00:03:02.554Z,19.1111111111
2018-06-29T00:03:14.961Z,19.1111111111
2018-06-29T00:03:27.359Z,19.1111111111
2018-06-29T00:03:39.756Z,19.1111111111
2018-06-29T00:03:52.289Z,19.1111111111
2018-06-29T00:04:04.694Z,19.1111111111
2018-06-29T00:04:17.095Z,19.1111111111
2018-06-29T00:04:29.747Z,19.1111111111
2018-06-29T00:04:42.140Z,19.1111111111
2018-06-29T00:04:54.544Z,19.1111111111
2018-06-29T00:05:06.985Z,19.1111111111
2018-06-29T00:05:19.385Z,19.0555555556
2018-06-29T00:05:31.771Z,19.1111111111
2018-06-29T00:05:44.163Z,19.1111111111
2018-06-29T00:05:56.555Z,19.0555555556
2018-06-29T00:06:08.968Z,19.0555555556
2018-06-29T00:06:21.371Z,19.0555555556
2018-06-29T00:06:33.784Z,19.0555555556
2018-06-29T00:06:46.361Z,19.0555555556
2018-06-29T00:06:58.856Z,19.0555555556
2018-06-29T00:07:11.408Z,19.0555555556
2018-06-29T00:07:23.827Z,19.0555555556
2018-06-29T00:07:36.239Z,19.0555555556
2018-06-29T00:07:48.643Z,19.0555555556
2018-06-29T00:08:01.047Z,19.0555555556
2018-06-29T00:08:13.617Z,19.0555555556
2018-06-29T00:08:26.022Z,19.0555555556
2018-06-29T00:08:38.421Z,19
2018-06-29T00:08:50.827Z,19
2018-06-29T00:09:03.232Z,19
2018-06-29T00:09:15.632Z,19.0555555556
2018-06-29T00:09:28.044Z,19
2018-06-29T00:09:40.438Z,19
2018-06-29T00:09:52.819Z,19.0555555556
2018-06-29T00:10:05.231Z,19
2018-06-29T00:10:17.625Z,19
2018-06-29T00:10:30.024Z,19
2018-06-29T00:10:42.418Z,19
2018-06-29T00:10:54.825Z,19
2018-06-29T00:11:07.231Z,19
2018-06-29T00:11:19.777Z,19
2018-06-29T00:11:32.178Z,19
2018-06-29T00:11:44.608Z,19
2018-06-29T00:11:57.050Z,19
2018-06-29T00:12:09.463Z,18.9444444444
2018-06-29T00:12:21.928Z,18.9444444444
2018-06-29T00:12:34.325Z,19
2018-06-29T00:12:46.718Z,19
2018-06-29T00:12:59.133Z,19
2018-06-29T00:13:11.601Z,18.9444444444
2018-06-29T00:13:23.998Z,19
2018-06-29T00:13:36.599Z,19
2018-06-29T00:13:48.998Z,19
2018-06-29T00:14:01.405Z,19
2018-06-29T00:14:13.818Z,18.9444444444
2018-06-29T00:14:26.253Z,18.9444444444
2018-06-29T00:14:38.667Z,18.9444444444
2018-06-29T00:14:51.299Z,18.9444444444
2018-06-29T00:15:03.728Z,18.9444444444
2018-06-29T00:15:16.195Z,18.9444444444
2018-06-29T00:15:28.725Z,18.9444444444
2018-06-29T00:15:41.120Z,18.9444444444
2018-06-29T00:15:53.518Z,18.9444444444
2018-06-29T00:16:05.975Z,18.9444444444
2018-06-29T00:16:18.400Z,18.9444444444
2018-06-29T00:16:31.237Z,18.9444444444
2018-06-29T00:16:44.325Z,18.9444444444
2018-06-29T00:16:56.710Z,18.9444444444
2018-06-29T00:17:09.114Z,18.9444444444
2018-06-29T00:17:21.508Z,18.9444444444
2018-06-29T00:17:33.898Z,18.8888888889
2018-06-29T00:17:46.408Z,18.8888888889
2018-06-29T00:17:58.814Z,18.8888888889
2018-06-29T00:18:11.329Z,18.8888888889
2018-06-29T00:18:23.740Z,18.9444444444
2018-06-29T00:18:36.153Z,18.8888888889
2018-06-29T00:18:48.630Z,18.8888888889
2018-06-29T00:19:01.080Z,18.8888888889
2018-06-29T00:19:13.479Z,18.8888888889
2018-06-29T00:19:25.871Z,18.8888888889
2018-06-29T00:19:38.283Z,18.8888888889
2018-06-29T00:19:50.683Z,18.8333333333
2018-06-29T00:20:03.170Z,18.8888888889
2018-06-29T00:20:15.722Z,18.8888888889
2018-06-29T00:20:28.120Z,18.8888888889
2018-06-29T00:20:40.672Z,18.8888888889
2018-06-29T00:20:53.288Z,18.8333333333
2018-06-29T00:21:05.686Z,18.8333333333
2018-06-29T00:21:18.229Z,18.8333333333
2018-06-29T00:21:30.620Z,18.8333333333
2018-06-29T00:21:43.175Z,18.8333333333
2018-06-29T00:21:55.579Z,18.8333333333
2018-06-29T00:22:07.998Z,18.8333333333
2018-06-29T00:22:20.416Z,18.8333333333
2018-06-29T00:22:32.816Z,18.8333333333
2018-06-29T00:22:45.226Z,18.8333333333
2018-06-29T00:22:57.635Z,18.8333333333
2018-06-29T00:23:10.430Z,18.8333333333
2018-06-29T00:23:22.849Z,18.8333333333
2018-06-29T00:23:35.607Z,18.8333333333
2018-06-29T00:23:48.010Z,18.7777777778
2018-06-29T00:24:00.778Z,18.7777777778
2018-06-29T00:24:13.198Z,18.7777777778
2018-06-29T00:24:25.667Z,18.7777777778
2018-06-29T00:24:38.096Z,18.7777777778
2018-06-29T00:24:50.685Z,18.7777777778
2018-06-29T00:25:03.145Z,18.7777777778
2018-06-29T00:25:15.524Z,18.7777777778
2018-06-29T00:25:27.948Z,18.7777777778
2018-06-29T00:25:40.361Z,18.7777777778
2018-06-29T00:25:52.760Z,18.7777777778
2018-06-29T00:26:05.184Z,18.7777777778
2018-06-29T00:26:17.577Z,18.7777777778
2018-06-29T00:26:29.959Z,18.7777777778
2018-06-29T00:26:42.524Z,18.7777777778
2018-06-29T00:26:55.091Z,18.7222222222
2018-06-29T00:27:07.489Z,18.7222222222
2018-06-29T00:27:19.950Z,18.7777777778
2018-06-29T00:27:32.362Z,18.7222222222
2018-06-29T00:27:44.754Z,18.7222222222
2018-06-29T00:27:57.355Z,18.7777777778
2018-06-29T00:28:09.767Z,18.7222222222
2018-06-29T00:28:22.180Z,18.7222222222
2018-06-29T00:28:34.592Z,18.7222222222
2018-06-29T00:28:47.211Z,18.7222222222
2018-06-29T00:28:59.743Z,18.7222222222
2018-06-29T00:29:12.140Z,18.7222222222
2018-06-29T00:29:24.596Z,18.7222222222
2018-06-29T00:29:36.992Z,18.7222222222
2018-06-29T00:29:49.396Z,18.7222222222
2018-06-29T00:30:01.783Z,18.7222222222
2018-06-29T00:30:14.322Z,18.6666666667
2018-06-29T00:30:26.720Z,18.7222222222
2018-06-29T00:30:39.143Z,18.7222222222
2018-06-29T00:30:51.545Z,18.6666666667
2018-06-29T00:31:03.957Z,18.6666666667
2018-06-29T00:31:16.347Z,18.6666666667
2018-06-29T00:31:28.733Z,18.6666666667
2018-06-29T00:31:41.123Z,18.6666666667
2018-06-29T00:31:53.567Z,18.6666666667
2018-06-29T00:32:05.978Z,18.6666666667
2018-06-29T00:32:18.377Z,18.6666666667
2018-06-29T00:32:30.772Z,18.6666666667
2018-06-29T00:32:43.173Z,18.6666666667
2018-06-29T00:32:55.670Z,18.6666666667
2018-06-29T00:33:08.077Z,18.6666666667
2018-06-29T00:33:20.472Z,18.6666666667
2018-06-29T00:33:32.860Z,18.6666666667
2018-06-29T00:33:45.247Z,18.6666666667
2018-06-29T00:33:57.694Z,18.6666666667
2018-06-29T00:34:10.096Z,18.6666666667
2018-06-29T00:34:22.494Z,18.6111111111
2018-06-29T00:34:34.891Z,18.6666666667
2018-06-29T00:34:47.311Z,18.6111111111
2018-06-29T00:34:59.720Z,18.6666666667
2018-06-29T00:35:12.132Z,18.6666666667
2018-06-29T00:35:24.658Z,18.6111111111
2018-06-29T00:35:37.064Z,18.6111111111
2018-06-29T00:35:49.478Z,18.6111111111
2018-06-29T00:36:01.886Z,18.6111111111
2018-06-29T00:36:14.469Z,18.6111111111
2018-06-29T00:36:26.874Z,18.6666666667
2018-06-29T00:36:39.283Z,18.6111111111
2018-06-29T00:36:51.723Z,18.6111111111
2018-06-29T00:37:04.551Z,18.6111111111
2018-06-29T00:37:16.991Z,18.6111111111
2018-06-29T00:37:29.396Z,18.6111111111
2018-06-29T00:37:41.800Z,18.6111111111
2018-06-29T00:37:54.351Z,18.6111111111
2018-06-29T00:38:06.908Z,18.6111111111
2018-06-29T00:38:19.468Z,18.6111111111
2018-06-29T00:38:32.036Z,18.6111111111
2018-06-29T00:38:44.569Z,18.6111111111
2018-06-29T00:38:56.978Z,18.6111111111
2018-06-29T00:39:09.386Z,18.6111111111
2018-06-29T00:39:21.814Z,18.6111111111
2018-06-29T00:39:34.376Z,18.6111111111
2018-06-29T00:39:46.857Z,18.6111111111
2018-06-29T00:39:59.250Z,18.5555555556
2018-06-29T00:40:11.652Z,18.6111111111
2018-06-29T00:40:24.058Z,18.5555555556
2018-06-29T00:40:36.449Z,18.5555555556
2018-06-29T00:40:48.936Z,18.5555555556
2018-06-29T00:41:01.337Z,18.6111111111
2018-06-29T00:41:13.758Z,18.5555555556
2018-06-29T00:41:26.325Z,18.5555555556
2018-06-29T00:41:38.719Z,18.5555555556
2018-06-29T00:41:51.111Z,18.5555555556
2018-06-29T00:42:03.522Z,18.5555555556
2018-06-29T00:42:15.926Z,18.5555555556
2018-06-29T00:42:28.324Z,18.5555555556
2018-06-29T00:42:40.729Z,18.5555555556
2018-06-29T00:42:53.131Z,18.5555555556
2018-06-29T00:43:05.539Z,18.5555555556
2018-06-29T00:43:17.939Z,18.5555555556
2018-06-29T00:43:30.340Z,18.5555555556
2018-06-29T00:43:42.757Z,18.5555555556
2018-06-29T00:43:55.148Z,18.5555555556
2018-06-29T00:44:07.700Z,18.5555555556
2018-06-29T00:44:20.097Z,18.5555555556
2018-06-29T00:44:32.543Z,18.5555555556
2018-06-29T00:44:44.946Z,18.5555555556
2018-06-29T00:44:57.506Z,18.5555555556
2018-06-29T00:45:09.965Z,18.5555555556
2018-06-29T00:45:22.370Z,18.5555555556
2018-06-29T00:45:34.782Z,18.5555555556
2018-06-29T00:45:47.183Z,18.5555555556
2018-06-29T00:46:00.470Z,18.5555555556
2018-06-29T00:46:13.151Z,18.5555555556
2018-06-29T00:46:25.562Z,18.5555555556
2018-06-29T00:46:37.970Z,18.5555555556
2018-06-29T00:46:50.397Z,18.5555555556
2018-06-29T00:47:02.793Z,18.5555555556
2018-06-29T00:47:15.201Z,18.5555555556
2018-06-29T00:47:27.614Z,18.5555555556
2018-06-29T00:47:40.024Z,18.5555555556
2018-06-29T00:47:52.432Z,18.5555555556
2018-06-29T00:48:04.823Z,18.5555555556
2018-06-29T00:48:17.220Z,18.5555555556
2018-06-29T00:48:29.633Z,18.5555555556
2018-06-29T00:48:42.092Z,18.5
2018-06-29T00:48:54.516Z,18.5555555556
2018-06-29T00:49:06.912Z,18.5555555556
2018-06-29T00:49:19.317Z,18.5555555556
2018-06-29T00:49:31.732Z,18.5555555556
2018-06-29T00:49:44.155Z,18.5555555556
2018-06-29T00:49:56.557Z,18.5555555556
2018-06-29T00:50:08.993Z,18.5555555556
2018-06-29T00:50:21.404Z,18.5
2018-06-29T00:50:33.820Z,18.5555555556
2018-06-29T00:50:46.235Z,18.5555555556
2018-06-29T00:50:58.638Z,18.5555555556
2018-06-29T00:51:11.051Z,18.5555555556
2018-06-29T00:51:23.446Z,18.5
2018-06-29T00:51:35.993Z,18.5555555556
2018-06-29T00:51:48.399Z,18.5555555556
2018-06-29T00:52:00.798Z,18.5555555556
2018-06-29T00:52:13.335Z,18.5
2018-06-29T00:52:25.885Z,18.5
2018-06-29T00:52:38.521Z,18.5555555556
2018-06-29T00:52:51.173Z,18.5555555556
2018-06-29T00:53:03.584Z,18.5
2018-06-29T00:53:15.990Z,18.5
2018-06-29T00:53:28.412Z,18.5
2018-06-29T00:53:40.803Z,18.5
2018-06-29T00:53:53.207Z,18.5555555556
2018-06-29T00:54:05.601Z,18.5
2018-06-29T00:54:18.029Z,18.5
2018-06-29T00:54:30.733Z,18.5555555556
2018-06-29T00:54:44.017Z,18.5555555556
2018-06-29T00:54:56.490Z,18.5
2018-06-29T00:55:09.063Z,18.5
2018-06-29T00:55:22.152Z,18.5
2018-06-29T00:55:34.783Z,18.5
2018-06-29T00:55:47.200Z,18.5
2018-06-29T00:55:59.603Z,18.5
2018-06-29T00:56:12.014Z,18.5
2018-06-29T00:56:24.417Z,18.5
2018-06-29T00:56:36.850Z,18.5
2018-06-29T00:56:49.257Z,18.5
2018-06-29T00:57:01.662Z,18.5
2018-06-29T00:57:14.065Z,18.5
2018-06-29T00:57:26.465Z,18.5
2018-06-29T00:57:38.866Z,18.5
2018-06-29T00:57:51.307Z,18.5
2018-06-29T00:58:03.704Z,18.5
2018-06-29T00:58:16.184Z,18.5
2018-06-29T00:58:28.587Z,18.5
2018-06-29T00:58:40.978Z,18.5
2018-06-29T00:58:53.396Z,18.5
2018-06-29T00:59:05.798Z,18.5
2018-06-29T00:59:18.197Z,18.4444444444
2018-06-29T00:59:30.778Z,18.4444444444
2018-06-29T00:59:43.207Z,18.4444444444
2018-06-29T00:59:55.648Z,18.5
2018-06-29T01:00:08.080Z,18.4444444444
2018-06-29T01:00:20.501Z,18.5
2018-06-29T01:00:33.029Z,18.5
2018-06-29T01:00:45.469Z,18.5
2018-06-29T01:00:57.878Z,18.5
2018-06-29T01:01:10.387Z,18.5
2018-06-29T01:01:23.027Z,18.5
2018-06-29T01:01:35.414Z,18.5
2018-06-29T01:01:47.811Z,18.4444444444
2018-06-29T01:02:00.196Z,18.5
2018-06-29T01:02:12.604Z,18.4444444444
2018-06-29T01:02:32.017Z,18.4444444444
2018-06-29T01:02:44.419Z,18.4444444444
2018-06-29T01:02:56.824Z,18.4444444444
2018-06-29T01:03:09.232Z,18.4444444444
2018-06-29T01:03:21.634Z,18.5
2018-06-29T01:03:34.036Z,18.4444444444
2018-06-29T01:03:46.466Z,18.4444444444
2018-06-29T01:03:58.914Z,18.4444444444
2018-06-29T01:04:11.311Z,18.4444444444
2018-06-29T01:04:23.726Z,18.4444444444
2018-06-29T01:04:36.118Z,18.4444444444
2018-06-29T01:04:48.548Z,18.4444444444
2018-06-29T01:05:00.944Z,18.4444444444
2018-06-29T01:05:13.371Z,18.4444444444
2018-06-29T01:05:25.772Z,18.4444444444
2018-06-29T01:05:38.179Z,18.4444444444
2018-06-29T01:05:50.613Z,18.4444444444
2018-06-29T01:06:03.059Z,18.4444444444
2018-06-29T01:06:15.461Z,18.4444444444
2018-06-29T01:06:27.899Z,18.4444444444
2018-06-29T01:06:40.294Z,18.4444444444
2018-06-29T01:06:52.686Z,18.4444444444
2018-06-29T01:07:05.089Z,18.4444444444
2018-06-29T01:07:17.619Z,18.3888888889
2018-06-29T01:07:30.025Z,18.4444444444
2018-06-29T01:07:42.418Z,18.4444444444
2018-06-29T01:07:54.818Z,18.4444444444
2018-06-29T01:08:07.267Z,18.3888888889
2018-06-29T01:08:20.749Z,18.4444444444
2018-06-29T01:08:33.260Z,18.4444444444
2018-06-29T01:08:45.681Z,18.3888888889
2018-06-29T01:08:58.105Z,18.3888888889
2018-06-29T01:09:10.534Z,18.4444444444
2018-06-29T01:09:22.949Z,18.4444444444
2018-06-29T01:09:35.372Z,18.3888888889
2018-06-29T01:09:47.767Z,18.3888888889
2018-06-29T01:10:00.223Z,18.3888888889
2018-06-29T01:10:12.632Z,18.3888888889
2018-06-29T01:10:25.041Z,18.3888888889
2018-06-29T01:10:37.452Z,18.3888888889
2018-06-29T01:10:49.851Z,18.3888888889
2018-06-29T01:11:02.255Z,18.3888888889
2018-06-29T01:11:14.667Z,18.3888888889
2018-06-29T01:11:27.073Z,18.3888888889
2018-06-29T01:11:39.485Z,18.3888888889
2018-06-29T01:11:51.889Z,18.3888888889
2018-06-29T01:12:04.448Z,18.3888888889
2018-06-29T01:12:16.847Z,18.3888888889
2018-06-29T01:12:29.252Z,18.3888888889
2018-06-29T01:12:41.666Z,18.3888888889
2018-06-29T01:12:54.100Z,18.3888888889
2018-06-29T01:13:06.513Z,18.3888888889
2018-06-29T01:13:18.918Z,18.3888888889
2018-06-29T01:13:31.335Z,18.3888888889
2018-06-29T01:13:43.752Z,18.3888888889
2018-06-29T01:13:56.166Z,18.3888888889
2018-06-29T01:14:08.576Z,18.3888888889
2018-06-29T01:14:20.987Z,18.3888888889
2018-06-29T01:14:33.399Z,18.3888888889
2018-06-29T01:14:45.808Z,18.3888888889
2018-06-29T01:14:58.216Z,18.3333333333
2018-06-29T01:15:10.654Z,18.3888888889
2018-06-29T01:15:23.070Z,18.3888888889
2018-06-29T01:15:35.473Z,18.3888888889
2018-06-29T01:15:47.874Z,18.3888888889
2018-06-29T01:16:00.292Z,18.3333333333
2018-06-29T01:16:12.683Z,18.3333333333
2018-06-29T01:16:25.093Z,18.3333333333
2018-06-29T01:16:37.503Z,18.3333333333
2018-06-29T01:16:49.974Z,18.3333333333
2018-06-29T01:17:02.504Z,18.3333333333
2018-06-29T01:17:14.888Z,18.3888888889
2018-06-29T01:17:27.282Z,18.3333333333
2018-06-29T01:17:39.701Z,18.3333333333
2018-06-29T01:17:52.092Z,18.3333333333
2018-06-29T01:18:04.489Z,18.3333333333
2018-06-29T01:18:16.912Z,18.3333333333
2018-06-29T01:18:29.315Z,18.3333333333
2018-06-29T01:18:41.712Z,18.3333333333
2018-06-29T01:18:54.103Z,18.3333333333
2018-06-29T01:19:06.502Z,18.3333333333
2018-06-29T01:19:18.933Z,18.3333333333
2018-06-29T01:19:31.323Z,18.3333333333
2018-06-29T01:19:43.791Z,18.3333333333
2018-06-29T01:19:56.183Z,18.3333333333
2018-06-29T01:20:08.602Z,18.2777777778
2018-06-29T01:20:21.004Z,18.3333333333
2018-06-29T01:20:33.404Z,18.2777777778
2018-06-29T01:20:45.810Z,18.2777777778
2018-06-29T01:20:58.214Z,18.2777777778
2018-06-29T01:21:10.640Z,18.2777777778
2018-06-29T01:21:23.026Z,18.2777777778
2018-06-29T01:21:35.608Z,18.2777777778
2018-06-29T01:21:48.026Z,18.2777777778
2018-06-29T01:22:00.466Z,18.2777777778
2018-06-29T01:22:12.862Z,18.2777777778
2018-06-29T01:22:25.282Z,18.2777777778
2018-06-29T01:22:37.718Z,18.2777777778
2018-06-29T01:22:50.137Z,18.2777777778
2018-06-29T01:23:02.540Z,18.2777777778
2018-06-29T01:23:15.106Z,18.2777777778
2018-06-29T01:23:27.557Z,18.2777777778
2018-06-29T01:23:39.959Z,18.2777777778
2018-06-29T01:23:52.365Z,18.2777777778
2018-06-29T01:24:04.891Z,18.2777777778
2018-06-29T01:24:17.295Z,18.2777777778
2018-06-29T01:24:29.707Z,18.2777777778
2018-06-29T01:24:42.107Z,18.2777777778
2018-06-29T01:24:54.576Z,18.2222222222
2018-06-29T01:25:06.995Z,18.2777777778
2018-06-29T01:25:19.436Z,18.2222222222
2018-06-29T01:25:31.838Z,18.2222222222
2018-06-29T01:25:44.227Z,18.2777777778
2018-06-29T01:25:56.675Z,18.2777777778
2018-06-29T01:26:09.121Z,18.2222222222
2018-06-29T01:26:21.508Z,18.2222222222
2018-06-29T01:26:33.967Z,18.2222222222
2018-06-29T01:26:46.421Z,18.2222222222
2018-06-29T01:26:58.832Z,18.2222222222
2018-06-29T01:27:11.262Z,18.2222222222
2018-06-29T01:27:23.667Z,18.2222222222
2018-06-29T01:27:36.080Z,18.2222222222
2018-06-29T01:27:48.487Z,18.2222222222
2018-06-29T01:28:00.882Z,18.2777777778
2018-06-29T01:28:13.327Z,18.2222222222
2018-06-29T01:28:25.944Z,18.2222222222
2018-06-29T01:28:38.733Z,18.2222222222
2018-06-29T01:28:51.928Z,18.2222222222
2018-06-29T01:29:04.346Z,18.2222222222
2018-06-29T01:29:16.747Z,18.2222222222
2018-06-29T01:29:29.147Z,18.2222222222
2018-06-29T01:29:41.548Z,18.2222222222
2018-06-29T01:29:53.944Z,18.2222222222
2018-06-29T01:30:06.340Z,18.2222222222
2018-06-29T01:30:18.754Z,18.1666666667
2018-06-29T01:30:31.161Z,18.2222222222
2018-06-29T01:30:43.562Z,18.2222222222
2018-06-29T01:30:55.958Z,18.2222222222
2018-06-29T01:31:08.367Z,18.2222222222
2018-06-29T01:31:20.778Z,18.2222222222
2018-06-29T01:31:33.176Z,18.2222222222
2018-06-29T01:31:45.623Z,18.2222222222
2018-06-29T01:31:58.028Z,18.2222222222
2018-06-29T01:32:10.426Z,18.1666666667
2018-06-29T01:32:22.822Z,18.2222222222
2018-06-29T01:32:35.244Z,18.1666666667
2018-06-29T01:32:47.671Z,18.2222222222
2018-06-29T01:33:00.080Z,18.2222222222
2018-06-29T01:33:12.545Z,18.2222222222
2018-06-29T01:33:24.952Z,18.2222222222
2018-06-29T01:33:37.341Z,18.2222222222
2018-06-29T01:33:49.772Z,18.2222222222
2018-06-29T01:34:02.167Z,18.2222222222
2018-06-29T01:34:14.562Z,18.2222222222
2018-06-29T01:34:27.033Z,18.2222222222
2018-06-29T01:34:39.437Z,18.2222222222
2018-06-29T01:34:51.832Z,18.2222222222
2018-06-29T01:35:04.252Z,18.2222222222
2018-06-29T01:35:16.682Z,18.2222222222
2018-06-29T01:35:29.074Z,18.2222222222
2018-06-29T01:35:41.481Z,18.1666666667
2018-06-29T01:35:53.868Z,18.2222222222
2018-06-29T01:36:06.261Z,18.2222222222
2018-06-29T01:36:18.649Z,18.2222222222
2018-06-29T01:36:31.048Z,18.2222222222
2018-06-29T01:36:43.452Z,18.1666666667
2018-06-29T01:36:55.897Z,18.2222222222
2018-06-29T01:37:09.063Z,18.2222222222
2018-06-29T01:37:21.469Z,18.2222222222
2018-06-29T01:37:33.863Z,18.2222222222
2018-06-29T01:37:46.262Z,18.1666666667
2018-06-29T01:37:58.660Z,18.2222222222
2018-06-29T01:38:11.042Z,18.2222222222
2018-06-29T01:38:23.438Z,18.2222222222
2018-06-29T01:38:35.832Z,18.2222222222
2018-06-29T01:38:48.234Z,18.2222222222
2018-06-29T01:39:00.628Z,18.2222222222
2018-06-29T01:39:13.012Z,18.1666666667
2018-06-29T01:39:25.410Z,18.1666666667
2018-06-29T01:39:37.827Z,18.1666666667
2018-06-29T01:39:50.269Z,18.2222222222
2018-06-29T01:40:02.739Z,18.1666666667
2018-06-29T01:40:15.158Z,18.2222222222
2018-06-29T01:40:27.565Z,18.2222222222
2018-06-29T01:40:39.971Z,18.1666666667
2018-06-29T01:40:52.381Z,18.2222222222
2018-06-29T01:41:04.785Z,18.1666666667
2018-06-29T01:41:17.196Z,18.1666666667
2018-06-29T01:41:30.269Z,18.1666666667
2018-06-29T01:41:43.034Z,18.1666666667
2018-06-29T01:41:55.454Z,18.1666666667
2018-06-29T01:42:07.886Z,18.1666666667
2018-06-29T01:42:20.287Z,18.1666666667
2018-06-29T01:42:32.693Z,18.1666666667
2018-06-29T01:42:45.108Z,18.1666666667
2018-06-29T01:42:57.509Z,18.1666666667
2018-06-29T01:43:09.926Z,18.1666666667
2018-06-29T01:43:22.347Z,18.1666666667
2018-06-29T01:43:34.764Z,18.1666666667
2018-06-29T01:43:47.178Z,18.1666666667
2018-06-29T01:43:59.596Z,18.1666666667
2018-06-29T01:44:12.001Z,18.1666666667
2018-06-29T01:44:24.425Z,18.2222222222
2018-06-29T01:44:36.830Z,18.1666666667
2018-06-29T01:44:49.225Z,18.1666666667
2018-06-29T01:45:01.630Z,18.1666666667
2018-06-29T01:45:14.046Z,18.1666666667
2018-06-29T01:45:26.452Z,18.1666666667
2018-06-29T01:45:38.854Z,18.1666666667
2018-06-29T01:45:51.430Z,18.1666666667
2018-06-29T01:46:03.818Z,18.1666666667
2018-06-29T01:46:16.245Z,18.1666666667
2018-06-29T01:46:28.661Z,18.1666666667
2018-06-29T01:46:41.065Z,18.1666666667
2018-06-29T01:46:53.473Z,18.1666666667
2018-06-29T01:47:05.875Z,18.1666666667
2018-06-29T01:47:18.274Z,18.1666666667
2018-06-29T01:47:30.674Z,18.1666666667
2018-06-29T01:47:43.082Z,18.1666666667
2018-06-29T01:47:55.478Z,18.1666666667
2018-06-29T01:48:07.878Z,18.1111111111
2018-06-29T01:48:20.282Z,18.1666666667
2018-06-29T01:48:32.683Z,18.1111111111
2018-06-29T01:48:45.247Z,18.1111111111
2018-06-29T01:48:57.662Z,18.1111111111
2018-06-29T01:49:10.068Z,18.1666666667
2018-06-29T01:49:22.463Z,18.1666666667
2018-06-29T01:49:34.859Z,18.1666666667
2018-06-29T01:49:47.262Z,18.1111111111
2018-06-29T01:49:59.729Z,18.1666666667
2018-06-29T01:50:12.189Z,18.1666666667
2018-06-29T01:50:24.591Z,18.1111111111
2018-06-29T01:50:37.006Z,18.1111111111
2018-06-29T01:50:49.445Z,18.1666666667
2018-06-29T01:51:01.849Z,18.1111111111
2018-06-29T01:51:14.274Z,18.1666666667
2018-06-29T01:51:26.675Z,18.1111111111
2018-06-29T01:51:39.064Z,18.1111111111
2018-06-29T01:51:51.468Z,18.1111111111
2018-06-29T01:52:03.871Z,18.1111111111
2018-06-29T01:52:16.688Z,18.1111111111
2018-06-29T01:52:29.482Z,18.1111111111
2018-06-29T01:52:42.757Z,18.1111111111
2018-06-29T01:52:55.505Z,18.1111111111
2018-06-29T01:53:07.915Z,18.1666666667
2018-06-29T01:53:20.323Z,18.1111111111
2018-06-29T01:53:32.732Z,18.1111111111
2018-06-29T01:53:45.149Z,18.1111111111
2018-06-29T01:53:57.627Z,18.1111111111
2018-06-29T01:54:10.191Z,18.1111111111
2018-06-29T01:54:22.663Z,18.1111111111
2018-06-29T01:54:35.065Z,18.1111111111
2018-06-29T01:54:47.474Z,18.1666666667
2018-06-29T01:55:00.051Z,18.1111111111
2018-06-29T01:55:12.471Z,18.1111111111
2018-06-29T01:55:24.917Z,18.1111111111
2018-06-29T01:55:37.369Z,18.1111111111
2018-06-29T01:55:49.774Z,18.1666666667
2018-06-29T01:56:02.199Z,18.1666666667
2018-06-29T01:56:14.634Z,18.1111111111
2018-06-29T01:56:27.064Z,18.1111111111
2018-06-29T01:56:39.462Z,18.1111111111
2018-06-29T01:56:51.876Z,18.1111111111
2018-06-29T01:57:04.296Z,18.1111111111
2018-06-29T01:57:16.692Z,18.1111111111
2018-06-29T01:57:29.123Z,18.1666666667
2018-06-29T01:57:41.529Z,18.1111111111
2018-06-29T01:57:53.913Z,18.1111111111
2018-06-29T01:58:06.339Z,18.1111111111
2018-06-29T01:58:18.801Z,18.1666666667
2018-06-29T01:58:31.210Z,18.1111111111
2018-06-29T01:58:43.622Z,18.1111111111
2018-06-29T01:58:56.015Z,18.1111111111
2018-06-29T01:59:08.443Z,18.1111111111
2018-06-29T01:59:20.844Z,18.1111111111
2018-06-29T01:59:33.297Z,18.1111111111
2018-06-29T01:59:45.695Z,18.1666666667
2018-06-29T01:59:58.149Z,18.1111111111
2018-06-29T02:00:10.579Z,18.1111111111
2018-06-29T02:00:23.012Z,18.1111111111
2018-06-29T02:00:35.464Z,18.1111111111
2018-06-29T02:00:47.908Z,18.1111111111
2018-06-29T02:01:00.404Z,18.1111111111
2018-06-29T02:01:13.091Z,18.1111111111
2018-06-29T02:01:25.730Z,18.1111111111
2018-06-29T02:01:38.133Z,18.1111111111
2018-06-29T02:01:50.535Z,18.1111111111
2018-06-29T02:02:02.939Z,18.1111111111
2018-06-29T02:02:15.330Z,18.1111111111
2018-06-29T02:02:27.787Z,18.1111111111
2018-06-29T02:02:40.169Z,18.1111111111
2018-06-29T02:02:52.581Z,18.1111111111
2018-06-29T02:03:04.982Z,18.1111111111
2018-06-29T02:03:17.443Z,18.1111111111
2018-06-29T02:03:29.853Z,18.1111111111
2018-06-29T02:03:42.241Z,18.1111111111
2018-06-29T02:03:54.633Z,18.1111111111
2018-06-29T02:04:07.056Z,18.1111111111
2018-06-29T02:04:19.523Z,18.1111111111
2018-06-29T02:04:31.945Z,18.0555555556
2018-06-29T02:04:44.357Z,18.1111111111
2018-06-29T02:04:56.758Z,18.1111111111
2018-06-29T02:05:09.163Z,18.1111111111
2018-06-29T02:05:21.572Z,18.1111111111
2018-06-29T02:05:33.970Z,18.1111111111
2018-06-29T02:05:46.362Z,18.1111111111
2018-06-29T02:05:58.750Z,18.1111111111
2018-06-29T02:06:11.146Z,18.1111111111
2018-06-29T02:06:23.588Z,18.1111111111
2018-06-29T02:06:36.004Z,18.1111111111
2018-06-29T02:06:48.403Z,18.0555555556
2018-06-29T02:07:00.827Z,18.0555555556
2018-06-29T02:07:13.380Z,18.1111111111
2018-06-29T02:07:25.783Z,18.0555555556
2018-06-29T02:07:38.186Z,18.1111111111
2018-06-29T02:07:50.600Z,18.1111111111
2018-06-29T02:08:03.493Z,18.1111111111
2018-06-29T02:08:16.641Z,18.0555555556
2018-06-29T02:08:29.091Z,18.1111111111
2018-06-29T02:08:41.504Z,18.0555555556
2018-06-29T02:08:53.908Z,18.0555555556
2018-06-29T02:09:06.373Z,18.1111111111
2018-06-29T02:09:18.767Z,18.0555555556
2018-06-29T02:09:31.170Z,18.0555555556
2018-06-29T02:09:43.622Z,18.0555555556
2018-06-29T02:09:56.034Z,18.0555555556
2018-06-29T02:10:08.468Z,18.0555555556
2018-06-29T02:10:20.871Z,18.0555555556
2018-06-29T02:10:33.266Z,18.0555555556
2018-06-29T02:10:45.680Z,18.0555555556